Nabolsi 1 — HP3264 — position and weather

sailwx.info

Track history (hours):
 
Tides and Currents Weather Stations Pressure Air Temp Water Temp Dewpoint Dewpoint Depression Visibility Wind Speed Wind Dir Waves Ship Positions

Nabolsi 1

Last reported at 2017-Sep-28 00:56 UTC. Time now 2017-Oct-17 16:59 UTC.
Position N 44°33' E 013°39'.
Warning: this ship's position is 19 days out of date.

Length 75 m; draft 3.7 m.

Type: Cargo ship. MMSI: 357933000.

Date/timePositionNaut miles runAvg speedWind from/ knotsBaromVisibWave heightAir tempDewpointWater temp
2017-Sep-28 00:56N 44°33' E 013°39'4 9.2
2017-Sep-28 00:30N 44°37' E 013°36'4 9.0
2017-Sep-28 00:01N 44°40' E 013°32'5 9.3
2017-Sep-27 23:30N 44°44' E 013°29'5 9.7
2017-Sep-27 23:00N 44°48' E 013°25'510.1
2017-Sep-27 22:30N 44°52' E 013°21'510.3
2017-Sep-27 22:01N 44°57' E 013°17'5 9.9
2017-Sep-27 21:31N 45°01' E 013°13'5 9.7
2017-Sep-27 21:01N 45°05' E 013°10'5 9.7
2017-Sep-27 20:30N 45°09' E 013°06'5 9.8
2017-Sep-27 20:00N 45°14' E 013°05'5 9.7
2017-Sep-27 19:30N 45°19' E 013°03'5 9.3
2017-Sep-27 19:00N 45°23' E 013°04'510.3
2017-Sep-27 18:30N 45°27' E 013°09'510.3
2017-Sep-27 18:00N 45°31' E 013°14'510.0
2017-Sep-27 17:30N 45°34' E 013°20'510.3
2017-Sep-27 17:00N 45°36' E 013°27'510.1
2017-Sep-27 16:30N 45°38' E 013°34'5 9.5
2017-Sep-27 16:01N 45°35' E 013°40'4 6.6
2017-Sep-27 15:25N 45°34' E 013°45'0 0.1
2017-Sep-27 14:58N 45°34' E 013°45'0 0.0
2017-Sep-27 14:28N 45°34' E 013°45'0 0.0
2017-Sep-27 13:55N 45°34' E 013°45'0 0.0
2017-Sep-27 13:16N 45°34' E 013°45'0 0.0
2017-Sep-27 12:55N 45°34' E 013°45'0 0.0
2017-Sep-27 12:22N 45°34' E 013°45'0 0.0
2017-Sep-27 11:55N 45°34' E 013°45'0 0.0
2017-Sep-27 11:28N 45°34' E 013°45'0 0.0
2017-Sep-27 10:55N 45°34' E 013°45'0 0.0
2017-Sep-27 10:22N 45°34' E 013°45'0 0.0
2017-Sep-27 09:58N 45°34' E 013°45'0 0.0
2017-Sep-27 09:28N 45°34' E 013°45'0 0.0
2017-Sep-27 08:43N 45°34' E 013°45'0 0.0
2017-Sep-27 08:28N 45°34' E 013°45'0 0.0
2017-Sep-27 07:58N 45°34' E 013°45'0 0.0
2017-Sep-27 07:25N 45°34' E 013°45'0 0.0
2017-Sep-27 06:58N 45°34' E 013°45'0 0.0
2017-Sep-27 06:25N 45°34' E 013°45'0 0.0
2017-Sep-27 05:43N 45°34' E 013°45'0 0.0
2017-Sep-27 05:28N 45°34' E 013°45'0 0.0
2017-Sep-27 04:58N 45°34' E 013°45'0 0.0
2017-Sep-27 04:16N 45°34' E 013°45'0 0.0
2017-Sep-27 03:58N 45°34' E 013°45'0 0.0
2017-Sep-27 03:28N 45°34' E 013°45'0 0.0
2017-Sep-27 02:58N 45°34' E 013°45'0 0.0
2017-Sep-27 02:28N 45°34' E 013°45'0 0.0
2017-Sep-27 01:58N 45°34' E 013°45'0 0.0
2017-Sep-27 01:28N 45°34' E 013°45'0 0.0
2017-Sep-27 00:58N 45°34' E 013°45'0 0.0
2017-Sep-27 00:28N 45°34' E 013°45'0 0.0
2017-Sep-26 23:58N 45°34' E 013°45'0 0.0
2017-Sep-26 23:31N 45°34' E 013°45'0 0.0
2017-Sep-26 22:55N 45°33' E 013°45'0 0.0
2017-Sep-26 22:31N 45°33' E 013°45'0 0.0
2017-Sep-26 21:57N 45°34' E 013°45'0 0.0
2017-Sep-26 21:30N 45°34' E 013°45'0 0.0
2017-Sep-26 21:00N 45°34' E 013°45'0 0.0
2017-Sep-26 20:24N 45°34' E 013°45'0 0.0
2017-Sep-26 20:00N 45°34' E 013°45'0 0.0
2017-Sep-26 19:30N 45°34' E 013°45'0 0.0
2017-Sep-26 19:00N 45°34' E 013°45'0 0.0
2017-Sep-26 18:30N 45°34' E 013°45'0 0.0
2017-Sep-26 17:54N 45°34' E 013°45'0 0.0
2017-Sep-26 17:27N 45°34' E 013°45'0 0.0
2017-Sep-26 16:57N 45°34' E 013°45'0 0.0
2017-Sep-26 16:15N 45°34' E 013°45'0 0.0
2017-Sep-26 16:00N 45°34' E 013°45'0 0.0
2017-Sep-26 15:27N 45°34' E 013°45'0 0.0
2017-Sep-26 14:57N 45°34' E 013°45'0 0.0
2017-Sep-26 14:27N 45°34' E 013°45'0 0.0
2017-Sep-26 13:54N 45°34' E 013°45'0 0.0
2017-Sep-26 13:30N 45°34' E 013°45'0 0.0
2017-Sep-26 13:00N 45°34' E 013°45'0 0.0
2017-Sep-26 12:30N 45°34' E 013°45'0 0.0
2017-Sep-26 12:00N 45°34' E 013°45'0 0.0
2017-Sep-26 11:24N 45°34' E 013°45'0 0.0
2017-Sep-26 11:00N 45°34' E 013°45'0 0.0
2017-Sep-26 10:27N 45°34' E 013°45'0 0.0
2017-Sep-26 10:00N 45°34' E 013°45'0 0.0
2017-Sep-26 09:30N 45°34' E 013°45'0 0.0
2017-Sep-26 09:00N 45°34' E 013°45'0 0.0
2017-Sep-26 08:30N 45°34' E 013°45'0 0.0
2017-Sep-26 08:00N 45°34' E 013°45'0 0.0
2017-Sep-26 07:24N 45°34' E 013°45'0 0.0
2017-Sep-26 06:51N 45°34' E 013°45'1 3.1
2017-Sep-26 06:31N 45°34' E 013°43'2 3.3
2017-Sep-26 05:59N 45°35' E 013°42'0 0.0
2017-Sep-26 05:17N 45°35' E 013°42'0 0.1
2017-Sep-26 04:59N 45°35' E 013°42'0 0.0
2017-Sep-26 04:14N 45°35' E 013°42'0 0.0
2017-Sep-26 03:56N 45°35' E 013°42'0 0.0
2017-Sep-26 03:23N 45°35' E 013°42'0 0.0
2017-Sep-26 02:59N 45°35' E 013°42'0 0.0
2017-Sep-26 02:05N 45°35' E 013°42'0 0.2
2017-Sep-26 01:59N 45°35' E 013°42'1 1.2
2017-Sep-26 01:30N 45°35' E 013°41'4 8.3
2017-Sep-26 01:00N 45°35' E 013°35'5 9.5
2017-Sep-26 00:30N 45°33' E 013°29'5 9.7
2017-Sep-26 00:00N 45°30' E 013°23'5 9.7
2017-Sep-25 23:30N 45°28' E 013°18'5 9.0
2017-Sep-25 23:00N 45°23' E 013°15'510.1
2017-Sep-25 22:30N 45°18' E 013°16'5 9.9
2017-Sep-25 22:00N 45°13' E 013°16'5 9.9
2017-Sep-25 21:30N 45°09' E 013°18'510.1
2017-Sep-25 21:00N 45°04' E 013°21'510.3
2017-Sep-25 20:30N 44°59' E 013°24'5 9.9
2017-Sep-25 20:00N 44°55' E 013°28'5 9.9
2017-Sep-25 19:30N 44°52' E 013°33'510.2
2017-Sep-25 19:00N 44°49' E 013°39'510.4
2017-Sep-25 18:30N 44°46' E 013°44'510.4
2017-Sep-25 18:00N 44°42' E 013°49'5 9.7
2017-Sep-25 17:30N 44°38' E 013°54'5 9.6
2017-Sep-25 17:00N 44°35' E 013°58'5 9.5
2017-Sep-25 16:30N 44°31' E 014°03'5 9.7
2017-Sep-25 16:00N 44°28' E 014°08'5 9.7
2017-Sep-25 15:30N 44°25' E 014°13'  
2017-Sep-21 01:39N 36°03' E 030°28'210.4
2017-Sep-21 01:30N 36°03' E 030°30'510.3
2017-Sep-21 01:00N 36°03' E 030°36'510.3
2017-Sep-21 00:30N 36°03' E 030°42'510.6
2017-Sep-21 00:00N 36°03' E 030°49'510.5
2017-Sep-20 23:30N 36°04' E 030°55'510.5
2017-Sep-20 22:59N 36°04' E 031°02'510.5
2017-Sep-20 22:31N 36°03' E 031°08'510.4
2017-Sep-20 22:00N 36°03' E 031°15'510.3
2017-Sep-20 21:31N 36°03' E 031°21'510.4
2017-Sep-20 21:00N 36°03' E 031°28'510.6
2017-Sep-20 20:30N 36°02' E 031°34'510.5
2017-Sep-20 20:00N 36°02' E 031°41'610.4
2017-Sep-20 19:28N 36°01' E 031°47'510.6
2017-Sep-20 19:00N 36°00' E 031°53'  
Track history (hours):
 
Tides and Currents Weather Stations Pressure Air Temp Water Temp Dewpoint Dewpoint Depression Visibility Wind Speed Wind Dir Waves Ship Positions

Nabolsi 1

Last reported at 2017-Sep-28 00:56 UTC. Time now 2017-Oct-17 16:59 UTC.
Position N 44°33' E 013°39'.
Warning: this ship's position is 19 days out of date.

Length 75 m; draft 3.7 m.

Type: Cargo ship. MMSI: 357933000.

Date/timePositionNaut miles runAvg speedWind from/ knotsBaromVisibWave heightAir tempDewpointWater temp
2017-Sep-28 00:56N 44°33' E 013°39'4 9.2
2017-Sep-28 00:30N 44°37' E 013°36'4 9.0
2017-Sep-28 00:01N 44°40' E 013°32'5 9.3
2017-Sep-27 23:30N 44°44' E 013°29'5 9.7
2017-Sep-27 23:00N 44°48' E 013°25'510.1
2017-Sep-27 22:30N 44°52' E 013°21'510.3
2017-Sep-27 22:01N 44°57' E 013°17'5 9.9
2017-Sep-27 21:31N 45°01' E 013°13'5 9.7
2017-Sep-27 21:01N 45°05' E 013°10'5 9.7
2017-Sep-27 20:30N 45°09' E 013°06'5 9.8
2017-Sep-27 20:00N 45°14' E 013°05'5 9.7
2017-Sep-27 19:30N 45°19' E 013°03'5 9.3
2017-Sep-27 19:00N 45°23' E 013°04'510.3
2017-Sep-27 18:30N 45°27' E 013°09'510.3
2017-Sep-27 18:00N 45°31' E 013°14'510.0
2017-Sep-27 17:30N 45°34' E 013°20'510.3
2017-Sep-27 17:00N 45°36' E 013°27'510.1
2017-Sep-27 16:30N 45°38' E 013°34'5 9.5
2017-Sep-27 16:01N 45°35' E 013°40'4 6.6
2017-Sep-27 15:25N 45°34' E 013°45'0 0.1
2017-Sep-27 14:58N 45°34' E 013°45'0 0.0
2017-Sep-27 14:28N 45°34' E 013°45'0 0.0
2017-Sep-27 13:55N 45°34' E 013°45'0 0.0
2017-Sep-27 13:16N 45°34' E 013°45'0 0.0
2017-Sep-27 12:55N 45°34' E 013°45'0 0.0
2017-Sep-27 12:22N 45°34' E 013°45'0 0.0
2017-Sep-27 11:55N 45°34' E 013°45'0 0.0
2017-Sep-27 11:28N 45°34' E 013°45'0 0.0
2017-Sep-27 10:55N 45°34' E 013°45'0 0.0
2017-Sep-27 10:22N 45°34' E 013°45'0 0.0
2017-Sep-27 09:58N 45°34' E 013°45'0 0.0
2017-Sep-27 09:28N 45°34' E 013°45'0 0.0
2017-Sep-27 08:43N 45°34' E 013°45'0 0.0
2017-Sep-27 08:28N 45°34' E 013°45'0 0.0
2017-Sep-27 07:58N 45°34' E 013°45'0 0.0
2017-Sep-27 07:25N 45°34' E 013°45'0 0.0
2017-Sep-27 06:58N 45°34' E 013°45'0 0.0
2017-Sep-27 06:25N 45°34' E 013°45'0 0.0
2017-Sep-27 05:43N 45°34' E 013°45'0 0.0
2017-Sep-27 05:28N 45°34' E 013°45'0 0.0
2017-Sep-27 04:58N 45°34' E 013°45'0 0.0
2017-Sep-27 04:16N 45°34' E 013°45'0 0.0
2017-Sep-27 03:58N 45°34' E 013°45'0 0.0
2017-Sep-27 03:28N 45°34' E 013°45'0 0.0
2017-Sep-27 02:58N 45°34' E 013°45'0 0.0
2017-Sep-27 02:28N 45°34' E 013°45'0 0.0
2017-Sep-27 01:58N 45°34' E 013°45'0 0.0
2017-Sep-27 01:28N 45°34' E 013°45'0 0.0
2017-Sep-27 00:58N 45°34' E 013°45'0 0.0
2017-Sep-27 00:28N 45°34' E 013°45'0 0.0
2017-Sep-26 23:58N 45°34' E 013°45'0 0.0
2017-Sep-26 23:31N 45°34' E 013°45'0 0.0
2017-Sep-26 22:55N 45°33' E 013°45'0 0.0
2017-Sep-26 22:31N 45°33' E 013°45'0 0.0
2017-Sep-26 21:57N 45°34' E 013°45'0 0.0
2017-Sep-26 21:30N 45°34' E 013°45'0 0.0
2017-Sep-26 21:00N 45°34' E 013°45'0 0.0
2017-Sep-26 20:24N 45°34' E 013°45'0 0.0
2017-Sep-26 20:00N 45°34' E 013°45'0 0.0
2017-Sep-26 19:30N 45°34' E 013°45'0 0.0
2017-Sep-26 19:00N 45°34' E 013°45'0 0.0
2017-Sep-26 18:30N 45°34' E 013°45'0 0.0
2017-Sep-26 17:54N 45°34' E 013°45'0 0.0
2017-Sep-26 17:27N 45°34' E 013°45'0 0.0
2017-Sep-26 16:57N 45°34' E 013°45'0 0.0
2017-Sep-26 16:15N 45°34' E 013°45'0 0.0
2017-Sep-26 16:00N 45°34' E 013°45'0 0.0
2017-Sep-26 15:27N 45°34' E 013°45'0 0.0
2017-Sep-26 14:57N 45°34' E 013°45'0 0.0
2017-Sep-26 14:27N 45°34' E 013°45'0 0.0
2017-Sep-26 13:54N 45°34' E 013°45'0 0.0
2017-Sep-26 13:30N 45°34' E 013°45'0 0.0
2017-Sep-26 13:00N 45°34' E 013°45'0 0.0
2017-Sep-26 12:30N 45°34' E 013°45'0 0.0
2017-Sep-26 12:00N 45°34' E 013°45'0 0.0
2017-Sep-26 11:24N 45°34' E 013°45'0 0.0
2017-Sep-26 11:00N 45°34' E 013°45'0 0.0
2017-Sep-26 10:27N 45°34' E 013°45'0 0.0
2017-Sep-26 10:00N 45°34' E 013°45'0 0.0
2017-Sep-26 09:30N 45°34' E 013°45'0 0.0
2017-Sep-26 09:00N 45°34' E 013°45'0 0.0
2017-Sep-26 08:30N 45°34' E 013°45'0 0.0
2017-Sep-26 08:00N 45°34' E 013°45'0 0.0
2017-Sep-26 07:24N 45°34' E 013°45'0 0.0
2017-Sep-26 06:51N 45°34' E 013°45'1 3.1
2017-Sep-26 06:31N 45°34' E 013°43'2 3.3
2017-Sep-26 05:59N 45°35' E 013°42'0 0.0
2017-Sep-26 05:17N 45°35' E 013°42'0 0.1
2017-Sep-26 04:59N 45°35' E 013°42'0 0.0
2017-Sep-26 04:14N 45°35' E 013°42'0 0.0
2017-Sep-26 03:56N 45°35' E 013°42'0 0.0
2017-Sep-26 03:23N 45°35' E 013°42'0 0.0
2017-Sep-26 02:59N 45°35' E 013°42'0 0.0
2017-Sep-26 02:05N 45°35' E 013°42'0 0.2
2017-Sep-26 01:59N 45°35' E 013°42'1 1.2
2017-Sep-26 01:30N 45°35' E 013°41'4 8.3
2017-Sep-26 01:00N 45°35' E 013°35'5 9.5
2017-Sep-26 00:30N 45°33' E 013°29'5 9.7
2017-Sep-26 00:00N 45°30' E 013°23'5 9.7
2017-Sep-25 23:30N 45°28' E 013°18'5 9.0
2017-Sep-25 23:00N 45°23' E 013°15'510.1
2017-Sep-25 22:30N 45°18' E 013°16'5 9.9
2017-Sep-25 22:00N 45°13' E 013°16'5 9.9
2017-Sep-25 21:30N 45°09' E 013°18'510.1
2017-Sep-25 21:00N 45°04' E 013°21'510.3
2017-Sep-25 20:30N 44°59' E 013°24'5 9.9
2017-Sep-25 20:00N 44°55' E 013°28'5 9.9
2017-Sep-25 19:30N 44°52' E 013°33'510.2
2017-Sep-25 19:00N 44°49' E 013°39'510.4
2017-Sep-25 18:30N 44°46' E 013°44'510.4
2017-Sep-25 18:00N 44°42' E 013°49'5 9.7
2017-Sep-25 17:30N 44°38' E 013°54'5 9.6
2017-Sep-25 17:00N 44°35' E 013°58'5 9.5
2017-Sep-25 16:30N 44°31' E 014°03'5 9.7
2017-Sep-25 16:00N 44°28' E 014°08'5 9.7
2017-Sep-25 15:30N 44°25' E 014°13'  
2017-Sep-21 01:39N 36°03' E 030°28'210.4
2017-Sep-21 01:30N 36°03' E 030°30'510.3
2017-Sep-21 01:00N 36°03' E 030°36'510.3
2017-Sep-21 00:30N 36°03' E 030°42'510.6
2017-Sep-21 00:00N 36°03' E 030°49'510.5
2017-Sep-20 23:30N 36°04' E 030°55'510.5
2017-Sep-20 22:59N 36°04' E 031°02'510.5
2017-Sep-20 22:31N 36°03' E 031°08'510.4
2017-Sep-20 22:00N 36°03' E 031°15'510.3
2017-Sep-20 21:31N 36°03' E 031°21'510.4
2017-Sep-20 21:00N 36°03' E 031°28'510.6
2017-Sep-20 20:30N 36°02' E 031°34'510.5
2017-Sep-20 20:00N 36°02' E 031°41'610.4
2017-Sep-20 19:28N 36°01' E 031°47'510.6
2017-Sep-20 19:00N 36°00' E 031°53'  

Dump ship's entire track history